Time;durP1;ratioP1;P1;durP2;ratioP2;P2;SDS_P1;SDS_P2;PMS_P1;PMS_P2;Temp;Humidity;BMP_temperature;BMP_pressure;BME280_temperature;BME280_humidity;BME280_pressure;Samples;Min_cycle;Max_cycle;Signal;HPM_P1;HPM_P2
2021/12/26 00:02:10;;;;;;;2.97;1.88;;;;;;;-2.73;73.02;100740.28;4983348;28;20426;-73
2021/12/26 00:04:36;;;;;;;3.92;2.10;;;;;;;-2.75;73.58;100742.09;4991186;28;20105;-74
2021/12/26 00:07:02;;;;;;;4.18;2.20;;;;;;;-2.80;73.20;100733.28;4983389;28;20038;-74
2021/12/26 00:09:27;;;;;;;6.57;1.92;;;;;;;-2.80;72.61;100737.75;4991083;28;20122;-75
2021/12/26 00:11:53;;;;;;;3.00;1.73;;;;;;;-2.79;72.61;100740.41;4980223;28;20565;-73
2021/12/26 00:14:20;;;;;;;2.88;1.83;;;;;;;-2.80;72.75;100741.28;4990694;28;20037;-75
2021/12/26 00:16:46;;;;;;;2.35;1.75;;;;;;;-2.80;72.85;100740.41;4988040;28;20041;-76
2021/12/26 00:19:11;;;;;;;4.47;2.35;;;;;;;-2.78;72.77;100739.47;4990411;28;20097;-76
2021/12/26 00:21:37;;;;;;;3.70;1.92;;;;;;;-2.76;73.75;100737.66;4989227;28;20092;-74
2021/12/26 00:24:03;;;;;;;6.18;2.20;;;;;;;-2.76;73.45;100731.47;4988483;28;20022;-76
2021/12/26 00:26:31;;;;;;;5.32;2.03;;;;;;;-2.74;72.93;100727.00;4988211;28;20022;-74
2021/12/26 00:28:56;;;;;;;6.68;2.72;;;;;;;-2.73;72.89;100726.97;4980567;28;20049;-74
2021/12/26 00:31:22;;;;;;;3.63;2.33;;;;;;;-2.74;73.74;100725.22;4988735;28;20034;-74
2021/12/26 00:33:47;;;;;;;3.75;2.30;;;;;;;-2.75;72.95;100718.13;4986265;28;20125;-73
2021/12/26 00:36:13;;;;;;;4.03;2.53;;;;;;;-2.74;72.83;100722.56;4982790;28;20033;-75
2021/12/26 00:38:38;;;;;;;5.30;2.20;;;;;;;-2.76;74.31;100720.81;4989028;28;20057;-73
2021/12/26 00:41:03;;;;;;;3.40;1.83;;;;;;;-2.81;73.18;100718.25;4977403;28;20578;-75
2021/12/26 00:43:29;;;;;;;2.60;1.95;;;;;;;-2.84;73.34;100718.31;4970782;28;20023;-73
2021/12/26 00:45:55;;;;;;;3.72;2.05;;;;;;;-2.86;73.52;100714.78;4984733;28;20054;-74
2021/12/26 00:48:21;;;;;;;4.25;2.15;;;;;;;-2.89;73.25;100715.75;4979782;28;20030;-75
2021/12/26 00:50:47;;;;;;;4.88;2.20;;;;;;;-2.93;73.63;100715.84;4982467;28;20085;-74
2021/12/26 00:53:13;;;;;;;3.80;2.20;;;;;;;-2.93;73.52;100713.19;4990283;28;20137;-76
2021/12/26 00:55:39;;;;;;;3.53;1.77;;;;;;;-2.94;73.85;100711.41;4988838;28;20544;-74
2021/12/26 00:58:05;;;;;;;6.43;2.45;;;;;;;-2.95;74.13;100722.97;4986485;28;20026;-73
2021/12/26 01:00:36;;;;;;;3.65;2.08;;;;;;;-2.98;74.45;100720.38;4988608;28;20109;-75
2021/12/26 01:03:03;;;;;;;3.92;2.00;;;;;;;-2.99;74.48;100722.13;4977856;28;20390;-76
2021/12/26 01:05:30;;;;;;;3.50;2.20;;;;;;;-2.98;74.40;100726.56;4988915;28;20113;-74
2021/12/26 01:08:03;;;;;;;4.03;2.40;;;;;;;-2.94;75.62;100727.38;4974760;28;20063;-76
2021/12/26 01:10:32;;;;;;;;;;;;;;;-2.91;76.08;100725.53;4986314;28;20034;-75
2021/12/26 01:12:58;;;;;;;7.82;1.80;;;;;;;-2.88;74.80;100724.59;4988563;28;19924;-75
2021/12/26 01:15:24;;;;;;;5.93;2.22;;;;;;;-2.85;74.97;100729.84;4987184;28;20018;-76
2021/12/26 01:17:57;;;;;;;4.32;2.20;;;;;;;-2.83;73.76;100725.41;4978243;28;20062;-74
2021/12/26 01:23:09;;;;;;;2.88;2.25;;;;;;;-2.75;74.34;100726.13;4984217;28;20039;-75
2021/12/26 01:25:34;;;;;;;5.47;2.67;;;;;;;-2.73;73.42;100723.41;4985454;28;21051;-74
2021/12/26 01:28:00;;;;;;;3.53;2.33;;;;;;;-2.70;73.53;100713.59;4978930;28;20018;-77
2021/12/26 01:30:25;;;;;;;4.03;2.17;;;;;;;-2.66;74.02;100722.38;4979921;28;20498;-77
2021/12/26 01:32:51;;;;;;;5.68;2.25;;;;;;;-2.64;73.09;100723.25;4983955;28;20354;-77
2021/12/26 01:35:16;;;;;;;5.47;3.00;;;;;;;-2.63;73.75;100712.53;4986832;28;20525;-76
2021/12/26 01:37:42;;;;;;;3.58;2.33;;;;;;;-2.61;74.03;100718.72;4985201;28;20093;-77
2021/12/26 01:40:07;;;;;;;3.20;2.05;;;;;;;-2.61;73.55;100715.19;4974967;28;20474;-75
2021/12/26 01:42:33;;;;;;;3.42;2.20;;;;;;;-2.62;73.36;100711.63;4976654;28;20026;-74
2021/12/26 01:44:59;;;;;;;6.88;2.50;;;;;;;-2.57;74.43;100715.06;4979480;28;20031;-77
2021/12/26 01:47:25;;;;;;;2.65;1.83;;;;;;;-2.56;73.85;100710.66;4977255;28;20030;-75
2021/12/26 01:49:50;;;;;;;5.57;2.45;;;;;;;-2.57;73.49;100700.88;4980703;28;20030;-75
2021/12/26 01:52:15;;;;;;;5.75;2.45;;;;;;;-2.53;75.02;100709.69;4982859;28;20030;-74
2021/12/26 01:54:47;;;;;;;3.38;1.90;;;;;;;-2.52;74.24;100701.66;4987447;28;20435;-76
2021/12/26 01:57:15;;;;;;;5.28;2.45;;;;;;;-2.52;73.58;100707.00;4987657;28;20038;-76
2021/12/26 01:59:42;;;;;;;4.75;2.90;;;;;;;-2.51;73.60;100711.44;4978385;28;20034;-75
2021/12/26 02:02:09;;;;;;;5.03;2.13;;;;;;;-2.51;73.72;100708.75;4982727;28;20046;-77
2021/12/26 02:04:38;;;;;;;6.82;2.80;;;;;;;-2.48;74.90;100710.47;4972224;28;20447;-75
2021/12/26 02:07:06;;;;;;;5.15;2.33;;;;;;;-2.48;74.90;100711.34;4987813;28;20038;-76
2021/12/26 02:09:31;;;;;;;4.22;2.50;;;;;;;-2.48;73.83;100708.69;4976445;28;20051;-77
2021/12/26 02:11:57;;;;;;;3.38;2.60;;;;;;;-2.45;73.58;100705.09;4987655;28;20034;-75
2021/12/26 02:14:23;;;;;;;6.30;3.00;;;;;;;-2.46;73.92;100700.69;4985230;28;20718;-76
2021/12/26 02:16:48;;;;;;;6.15;2.97;;;;;;;-2.44;74.65;100698.84;4977060;28;20034;-74
2021/12/26 02:19:13;;;;;;;7.95;3.08;;;;;;;-2.45;73.97;100710.41;4979396;28;20022;-76
2021/12/26 02:24:32;;;;;;;4.90;2.53;;;;;;;-2.46;73.54;100709.53;4986438;28;20026;-77
2021/12/26 02:29:42;;;;;;;6.45;2.90;;;;;;;-2.46;73.75;100704.22;4977175;28;20050;-74
2021/12/26 02:32:09;;;;;;;4.25;2.10;;;;;;;-2.48;73.74;100700.69;4982552;28;20034;-77
2021/12/26 02:34:35;;;;;;;4.55;3.08;;;;;;;-2.48;73.35;100703.34;4985055;28;20494;-76
2021/12/26 02:37:02;;;;;;;5.85;2.13;;;;;;;-2.51;72.84;100691.91;4986442;28;20030;-77
2021/12/26 02:39:27;;;;;;;4.95;2.55;;;;;;;-2.49;74.47;100690.94;4978214;28;20027;-77
2021/12/26 02:41:52;;;;;;;5.57;2.92;;;;;;;-2.50;74.32;100693.66;4976526;28;20058;-73
2021/12/26 02:44:18;;;;;;;6.85;2.20;;;;;;;-2.49;74.02;100688.28;4976225;28;20378;-75
2021/12/26 02:46:43;;;;;;;3.85;2.33;;;;;;;-2.48;72.71;100694.50;4979696;28;20033;-73
2021/12/26 02:49:08;;;;;;;5.35;2.60;;;;;;;-2.50;73.40;100683.00;4987406;28;20026;-76
2021/12/26 02:51:34;;;;;;;5.18;2.97;;;;;;;-2.52;73.23;100677.69;4987165;28;20062;-76
2021/12/26 02:53:59;;;;;;;5.25;2.47;;;;;;;-2.50;73.91;100681.22;4983586;28;20030;-76
2021/12/26 02:56:25;;;;;;;6.10;2.88;;;;;;;-2.49;73.72;100677.63;4982442;28;20062;-74
2021/12/26 02:58:50;;;;;;;4.13;2.67;;;;;;;-2.50;73.54;100677.69;4979970;28;20030;-76
2021/12/26 03:01:22;;;;;;;4.57;2.63;;;;;;;-2.50;73.30;100691.88;4987630;28;20026;-73
2021/12/26 03:03:48;;;;;;;4.30;2.50;;;;;;;-2.50;74.52;100685.66;4970246;28;20026;-76
2021/12/26 03:07:01;;;;;;;4.40;2.55;;;;;;;-2.49;73.46;100685.63;4983780;28;20040;-76
2021/12/26 03:09:03;;;;;;;6.38;3.20;;;;;;;-2.50;73.82;100683.00;4986762;28;20053;-75
2021/12/26 03:11:29;;;;;;;7.18;2.63;;;;;;;-2.50;73.66;100689.22;4973264;28;20050;-76
2021/12/26 03:13:54;;;;;;;5.10;2.72;;;;;;;-2.48;73.43;100687.38;4981145;28;20046;-74
2021/12/26 03:16:19;;;;;;;5.32;2.58;;;;;;;-2.50;73.91;100685.66;4975347;28;20030;-77
2021/12/26 03:18:45;;;;;;;5.40;2.55;;;;;;;-2.48;74.49;100692.69;4985652;28;20050;-74
2021/12/26 03:21:11;;;;;;;4.03;2.70;;;;;;;-2.49;75.19;100674.09;4987119;28;20030;-73
2021/12/26 03:23:36;;;;;;;3.33;2.35;;;;;;;-2.50;74.53;100670.56;4985530;28;20042;-75
2021/12/26 03:26:04;;;;;;;4.47;2.17;;;;;;;-2.48;74.92;100663.41;4998611;28;20589;-73
2021/12/26 03:28:31;;;;;;;4.97;2.50;;;;;;;-2.50;74.74;100657.25;4985490;28;20073;-76
2021/12/26 03:30:59;;;;;;;3.55;2.25;;;;;;;-2.52;75.46;100652.84;4987530;28;20038;-76
2021/12/26 03:33:25;;;;;;;3.25;2.15;;;;;;;-2.51;74.98;100650.19;4974227;28;20462;-76
2021/12/26 03:35:51;;;;;;;6.43;2.42;;;;;;;-2.51;74.30;100650.19;4977896;28;20084;-75
2021/12/26 03:38:17;;;;;;;4.40;2.65;;;;;;;-2.53;74.75;100651.97;4975401;28;20445;-76
2021/12/26 03:40:44;;;;;;;5.53;2.97;;;;;;;-2.54;75.53;100658.22;4984941;28;20026;-75
2021/12/26 03:43:10;;;;;;;4.68;2.58;;;;;;;-2.58;74.42;100656.53;4979013;28;20027;-77
2021/12/26 03:45:36;;;;;;;5.25;3.03;;;;;;;-2.63;73.83;100661.94;4978393;28;20038;-74
2021/12/26 03:48:03;;;;;;;5.70;2.70;;;;;;;-2.69;74.06;100659.44;4985291;28;20438;-74
2021/12/26 03:50:30;;;;;;;4.65;2.35;;;;;;;-2.73;74.07;100659.53;4987025;28;20030;-75
2021/12/26 03:52:57;;;;;;;6.05;2.80;;;;;;;-2.80;74.61;100653.44;4987513;28;20533;-75
2021/12/26 03:55:26;;;;;;;3.90;2.42;;;;;;;-2.84;75.05;100657.97;4979937;28;20453;-77
2021/12/26 03:57:52;;;;;;;4.32;2.47;;;;;;;-2.90;75.09;100654.53;4985393;28;20073;-74
2021/12/26 04:00:19;;;;;;;4.22;2.70;;;;;;;-2.97;75.18;100655.59;4986244;28;20042;-76
2021/12/26 04:02:45;;;;;;;4.93;2.65;;;;;;;-3.00;74.60;100656.50;4976757;28;20082;-73
2021/12/26 04:05:12;;;;;;;5.55;2.85;;;;;;;-3.05;75.90;100658.41;4980577;28;20035;-73
2021/12/26 04:07:37;;;;;;;6.20;2.95;;;;;;;-3.10;74.76;100647.84;4987437;28;20030;-78
2021/12/26 04:10:05;;;;;;;3.95;2.47;;;;;;;-3.14;75.18;100654.13;4987210;28;20470;-73
2021/12/26 04:12:36;;;;;;;5.05;2.75;;;;;;;-3.21;76.13;100648.97;4980825;28;20122;-75
2021/12/26 04:15:08;;;;;;;4.30;2.90;;;;;;;-3.24;76.23;100652.56;4979028;28;20034;-75
2021/12/26 04:17:34;;;;;;;3.88;2.22;;;;;;;-3.27;76.04;100655.25;4983267;28;20033;-78
2021/12/26 04:20:00;;;;;;;6.00;2.70;;;;;;;-3.34;75.80;100643.88;4986873;28;20026;-74
2021/12/26 04:22:25;;;;;;;5.05;2.70;;;;;;;-3.35;75.64;100646.56;4991054;28;20650;-78
2021/12/26 04:24:50;;;;;;;5.80;2.90;;;;;;;-3.39;76.68;100645.75;4985179;28;20546;-74
2021/12/26 04:27:15;;;;;;;6.38;3.30;;;;;;;-3.40;76.42;100644.00;4988991;28;20053;-75
2021/12/26 04:29:41;;;;;;;5.50;2.97;;;;;;;-3.43;77.12;100646.72;4989280;28;20033;-77
2021/12/26 04:32:06;;;;;;;5.50;2.53;;;;;;;-3.45;77.58;100644.97;4985694;28;20038;-73
2021/12/26 04:34:32;;;;;;;7.00;3.00;;;;;;;-3.46;77.14;100652.06;4989712;28;20441;-74
2021/12/26 04:36:57;;;;;;;5.65;2.35;;;;;;;-3.50;77.16;100647.72;4979808;28;20034;-74
2021/12/26 04:39:23;;;;;;;6.70;3.25;;;;;;;-3.53;77.21;100650.44;4988502;28;20084;-77
2021/12/26 04:41:48;;;;;;;5.88;3.05;;;;;;;-3.54;77.48;100645.13;4971779;28;20532;-76
2021/12/26 04:44:14;;;;;;;4.90;2.65;;;;;;;-3.56;77.82;100641.66;4983455;28;20026;-74
2021/12/26 04:46:39;;;;;;;6.60;2.97;;;;;;;-3.59;77.84;100639.94;4984729;28;20026;-75
2021/12/26 04:49:05;;;;;;;6.65;3.33;;;;;;;-3.62;78.38;100643.50;4973458;28;20494;-73
2021/12/26 04:51:30;;;;;;;6.30;3.05;;;;;;;-3.67;77.98;100640.06;4988716;28;20025;-78
2021/12/26 04:53:55;;;;;;;5.65;2.92;;;;;;;-3.67;77.78;100636.53;4983283;28;20034;-78
2021/12/26 04:56:21;;;;;;;3.90;2.28;;;;;;;-3.66;78.12;100641.81;4976459;28;20038;-73
2021/12/26 04:58:46;;;;;;;5.75;2.78;;;;;;;-3.67;77.94;100631.22;4989438;28;20383;-74
2021/12/26 05:01:12;;;;;;;8.90;2.85;;;;;;;-3.69;77.79;100639.19;4988669;28;20483;-76
2021/12/26 05:03:39;;;;;;;5.72;2.83;;;;;;;-3.69;78.17;100640.97;4973523;28;20030;-76
2021/12/26 05:06:04;;;;;;;4.88;2.75;;;;;;;-3.71;77.49;100633.03;4984478;28;20045;-75
2021/12/26 05:08:29;;;;;;;4.50;3.22;;;;;;;-3.75;78.10;100626.00;4990331;28;20046;-73
2021/12/26 05:10:56;;;;;;;5.70;3.03;;;;;;;-3.76;78.45;100624.28;4988059;28;20165;-73
2021/12/26 05:13:21;;;;;;;15.27;3.03;;;;;;;-3.76;78.12;100626.94;4973531;28;20053;-74
2021/12/26 05:15:46;;;;;;;5.32;3.38;;;;;;;-3.77;78.45;100633.16;4987690;28;20573;-76
2021/12/26 05:18:12;;;;;;;6.55;3.88;;;;;;;-3.80;77.66;100622.56;4979436;28;20479;-73
2021/12/26 05:20:37;;;;;;;6.43;2.75;;;;;;;-3.82;78.34;100627.03;4981712;28;20081;-77
2021/12/26 05:23:04;;;;;;;5.75;2.42;;;;;;;-3.81;78.95;100633.22;4979480;28;20030;-78
2021/12/26 05:25:29;;;;;;;6.30;3.33;;;;;;;-3.85;78.67;100632.41;4986470;28;20030;-76
2021/12/26 05:27:56;;;;;;;8.02;3.00;;;;;;;-3.85;78.91;100629.75;4983071;28;20492;-76
2021/12/26 05:30:23;;;;;;;5.57;2.78;;;;;;;-3.85;78.93;100625.31;4986983;28;20448;-73
2021/12/26 05:32:48;;;;;;;15.25;3.22;;;;;;;-3.87;79.43;100624.47;4976748;28;20509;-73
2021/12/26 05:35:16;;;;;;;7.20;3.50;;;;;;;-3.90;79.80;100621.84;4986061;28;20018;-78
2021/12/26 05:37:42;;;;;;;8.20;3.50;;;;;;;-3.91;79.43;100619.22;4989067;28;20177;-73
2021/12/26 05:40:09;;;;;;;5.57;2.60;;;;;;;-3.92;79.73;100614.78;4978587;28;20085;-74
2021/12/26 05:42:34;;;;;;;8.88;3.40;;;;;;;-3.93;79.65;100613.91;4980799;28;20093;-73
2021/12/26 05:45:00;;;;;;;5.18;2.92;;;;;;;-3.93;79.43;100607.72;4988655;28;20030;-74
2021/12/26 05:47:26;;;;;;;10.75;3.58;;;;;;;-3.95;80.05;100612.22;4988895;28;20116;-78
2021/12/26 05:49:52;;;;;;;5.30;2.83;;;;;;;-3.97;79.61;100609.56;4976738;28;20034;-78
2021/12/26 05:52:18;;;;;;;5.03;2.90;;;;;;;-3.97;79.96;100614.88;4985028;28;20026;-73
2021/12/26 05:54:44;;;;;;;5.50;3.20;;;;;;;-3.98;80.31;100610.47;4986998;28;20080;-74
2021/12/26 05:57:10;;;;;;;6.35;2.80;;;;;;;-4.02;80.09;100598.13;4982922;28;20486;-78
2021/12/26 05:59:35;;;;;;;5.75;2.75;;;;;;;-4.04;79.28;100599.09;4985358;28;20037;-73
2021/12/26 06:02:00;;;;;;;4.43;2.55;;;;;;;-4.02;79.60;100598.13;4973187;28;20376;-73
2021/12/26 06:04:26;;;;;;;6.05;2.70;;;;;;;-4.05;79.79;100594.69;4985752;28;20501;-73
2021/12/26 06:06:52;;;;;;;5.32;3.03;;;;;;;-4.05;79.94;100602.66;4981447;28;20033;-78
2021/12/26 06:09:18;;;;;;;4.75;2.90;;;;;;;-4.07;80.14;100599.13;4980791;28;20068;-78
2021/12/26 06:11:43;;;;;;;5.75;2.67;;;;;;;-4.09;80.58;100601.81;4986309;28;20029;-78
2021/12/26 06:14:08;;;;;;;7.38;3.08;;;;;;;-4.11;80.21;100598.28;4986898;28;20037;-73
2021/12/26 06:16:34;;;;;;;6.00;3.08;;;;;;;-4.11;80.78;100598.28;4987072;28;20602;-76
2021/12/26 06:18:59;;;;;;;3.75;2.60;;;;;;;-4.13;80.32;100597.44;4979122;28;20053;-78
2021/12/26 06:21:25;;;;;;;6.22;3.38;;;;;;;-4.13;80.79;100592.13;4987218;28;20652;-72
2021/12/26 06:23:50;;;;;;;5.90;2.65;;;;;;;-4.14;80.56;100591.25;4986137;28;20030;-77
2021/12/26 06:26:20;;;;;;;9.10;3.58;;;;;;;-4.13;80.44;100590.34;4983357;28;20062;-78
2021/12/26 06:28:45;;;;;;;10.18;3.65;;;;;;;-4.15;80.93;100588.63;4999333;28;20026;-75
2021/12/26 06:31:11;;;;;;;6.03;3.22;;;;;;;-4.13;80.90;100597.44;4983903;28;20034;-73
2021/12/26 06:33:37;;;;;;;4.93;2.83;;;;;;;-4.16;80.41;100598.38;4984816;28;20026;-73
2021/12/26 06:36:03;;;;;;;7.70;3.13;;;;;;;-4.17;80.79;100599.28;4981650;28;20034;-78
2021/12/26 06:38:28;;;;;;;6.22;3.13;;;;;;;-4.17;81.02;100599.28;4984831;28;20022;-77
2021/12/26 06:40:53;;;;;;;7.30;3.42;;;;;;;-4.20;81.01;100594.00;4982494;28;20046;-78
2021/12/26 06:43:19;;;;;;;5.47;3.00;;;;;;;-4.21;81.32;100592.25;4984300;28;20398;-73
2021/12/26 06:45:45;;;;;;;3.75;2.78;;;;;;;-4.20;80.56;100609.94;4985047;28;20089;-78
2021/12/26 06:48:10;;;;;;;5.38;2.92;;;;;;;-4.22;80.93;100603.78;4977822;28;20037;-78
2021/12/26 06:50:36;;;;;;;5.13;3.05;;;;;;;-4.22;80.65;100603.78;4983637;28;20478;-75
2021/12/26 06:53:02;;;;;;;4.95;2.83;;;;;;;-4.25;80.80;100600.28;4978510;28;20026;-78
2021/12/26 06:55:27;;;;;;;5.78;3.20;;;;;;;-4.26;80.73;100607.38;4985892;28;20030;-78
2021/12/26 06:57:53;;;;;;;8.15;3.58;;;;;;;-4.25;80.92;100605.59;4979619;28;20049;-73
2021/12/26 07:00:18;;;;;;;4.72;2.55;;;;;;;-4.27;80.74;100597.66;4985116;28;20037;-78
2021/12/26 07:02:44;;;;;;;5.05;2.53;;;;;;;-4.27;80.91;100610.06;4980166;28;20043;-77
2021/12/26 07:05:12;;;;;;;5.30;2.70;;;;;;;-4.28;80.49;100605.69;4985568;28;20041;-72
2021/12/26 07:07:38;;;;;;;4.97;3.10;;;;;;;-4.29;80.86;100603.91;4980292;28;20018;-72
2021/12/26 07:10:04;;;;;;;7.22;3.53;;;;;;;-4.27;80.18;100602.97;4986079;28;20084;-73
2021/12/26 07:12:30;;;;;;;8.00;2.97;;;;;;;-4.25;80.52;100594.97;4981245;28;20042;-78
2021/12/26 07:14:55;;;;;;;5.28;3.10;;;;;;;-4.25;80.64;100587.88;4987272;28;20031;-78
2021/12/26 07:17:20;;;;;;;6.93;3.17;;;;;;;-4.26;80.57;100596.75;4986340;28;20517;-73
2021/12/26 07:19:46;;;;;;;5.43;3.17;;;;;;;-4.27;81.02;100592.38;4985309;28;20048;-73
2021/12/26 07:22:11;;;;;;;6.43;3.45;;;;;;;-4.28;81.19;100595.94;4985169;28;20133;-78
2021/12/26 07:24:36;;;;;;;6.10;3.22;;;;;;;-4.32;81.06;100588.91;4985279;28;20026;-75
2021/12/26 07:27:02;;;;;;;6.05;3.30;;;;;;;-4.31;81.55;100593.31;4985871;28;20120;-72
2021/12/26 07:29:27;;;;;;;6.20;3.20;;;;;;;-4.30;81.54;100597.72;4987744;28;20076;-76
2021/12/26 07:31:52;;;;;;;7.68;3.40;;;;;;;-4.30;81.37;100592.41;4979544;28;20385;-78
2021/12/26 07:34:17;;;;;;;7.25;3.67;;;;;;;-4.28;81.50;100595.94;4986321;28;20405;-78
2021/12/26 07:36:43;;;;;;;4.63;3.10;;;;;;;-4.25;81.47;100589.66;4984786;28;20084;-76
2021/12/26 07:39:08;;;;;;;5.80;3.28;;;;;;;-4.22;81.04;100587.84;4984807;28;20030;-78
2021/12/26 07:41:33;;;;;;;5.95;3.00;;;;;;;-4.20;81.27;100591.34;4983615;28;20034;-79
2021/12/26 07:43:59;;;;;;;8.95;3.53;;;;;;;-4.15;81.45;100586.88;4985324;28;20101;-73
2021/12/26 07:46:25;;;;;;;5.10;3.13;;;;;;;-4.16;81.40;100585.09;4987724;28;20049;-72
2021/12/26 07:48:50;;;;;;;8.23;3.47;;;;;;;-4.14;81.55;100591.25;4987195;28;20030;-74
2021/12/26 07:51:16;;;;;;;6.75;3.88;;;;;;;-4.11;81.74;100590.31;4982957;28;20101;-77
2021/12/26 07:53:41;;;;;;;6.35;2.92;;;;;;;-4.11;81.39;100590.31;4982117;28;20038;-72
2021/12/26 07:56:06;;;;;;;8.07;3.65;;;;;;;-4.08;81.51;100594.72;4980613;28;20037;-78
2021/12/26 07:58:33;;;;;;;5.68;3.17;;;;;;;-4.06;80.65;100592.91;4987297;28;20057;-74
2021/12/26 08:00:58;;;;;;;6.95;3.30;;;;;;;-4.01;81.42;100599.91;4988496;28;20371;-78
2021/12/26 08:03:23;;;;;;;7.30;3.88;;;;;;;-3.98;81.65;100604.28;4978724;28;20026;-77
2021/12/26 08:05:49;;;;;;;8.80;3.55;;;;;;;-3.97;81.74;100600.72;4981882;28;20035;-72
2021/12/26 08:08:14;;;;;;;9.50;4.63;;;;;;;-3.93;82.24;100605.94;4986118;28;20106;-76
2021/12/26 08:10:39;;;;;;;7.55;3.45;;;;;;;-3.90;82.28;100608.56;4990056;28;20084;-72
2021/12/26 08:13:04;;;;;;;6.63;3.33;;;;;;;-3.84;81.56;100610.22;4985140;28;20422;-72
2021/12/26 08:15:30;;;;;;;7.03;3.65;;;;;;;-3.82;81.68;100599.56;4987385;28;20057;-73
2021/12/26 08:17:55;;;;;;;4.75;3.40;;;;;;;-3.78;82.10;100604.81;4988257;28;20034;-78
2021/12/26 08:20:20;;;;;;;7.25;3.72;;;;;;;-3.75;81.86;100606.53;4989969;28;20034;-78
2021/12/26 08:22:46;;;;;;;5.18;3.53;;;;;;;-3.73;82.18;100605.63;4990457;28;20018;-73
2021/12/26 08:25:12;;;;;;;10.93;3.67;;;;;;;-3.72;81.87;100594.09;4984173;28;20030;-79
2021/12/26 08:27:37;;;;;;;8.35;3.80;;;;;;;-3.67;82.03;100601.97;4989038;28;20034;-72
2021/12/26 08:30:04;;;;;;;7.50;3.90;;;;;;;-3.58;82.26;100606.25;4990064;28;20026;-79
2021/12/26 08:32:32;;;;;;;7.68;3.65;;;;;;;-3.51;81.78;100605.22;4977487;28;20075;-77
2021/12/26 08:34:59;;;;;;;8.25;4.03;;;;;;;-3.45;81.87;100602.44;4985271;28;20026;-76
2021/12/26 08:37:26;;;;;;;6.30;3.47;;;;;;;-3.38;82.17;100602.28;4989806;28;20032;-73
2021/12/26 08:39:52;;;;;;;8.60;3.47;;;;;;;-3.31;81.63;100599.50;4986871;28;20023;-79
2021/12/26 08:42:17;;;;;;;8.57;3.65;;;;;;;-3.25;80.79;100599.41;4975559;28;20030;-79
2021/12/26 08:44:42;;;;;;;6.53;3.67;;;;;;;-3.20;81.37;100593.06;4988309;28;20475;-74
2021/12/26 08:47:10;;;;;;;6.80;3.75;;;;;;;-3.11;81.61;100594.69;4983786;28;20033;-74
2021/12/26 08:49:35;;;;;;;7.63;4.63;;;;;;;-3.06;81.24;100592.78;4982392;28;20019;-74
2021/12/26 08:52:02;;;;;;;8.23;3.78;;;;;;;-3.00;81.33;100590.00;4987323;28;20038;-76
2021/12/26 08:54:29;;;;;;;8.73;4.13;;;;;;;-2.94;81.62;100589.88;4981126;28;20035;-77
2021/12/26 08:56:55;;;;;;;8.25;3.90;;;;;;;-2.89;80.99;100593.31;4978745;28;20026;-79
2021/12/26 08:59:24;;;;;;;6.88;3.55;;;;;;;-2.80;80.47;100592.22;4984881;28;20482;-77
2021/12/26 09:01:49;;;;;;;8.35;3.90;;;;;;;-2.76;80.24;100591.25;4983102;28;20106;-75
2021/12/26 09:04:15;;;;;;;10.88;5.22;;;;;;;-2.71;80.77;100584.03;4987431;28;20117;-76
2021/12/26 09:06:40;;;;;;;8.40;4.15;;;;;;;-2.66;80.61;100590.16;4985739;28;20022;-74
2021/12/26 09:09:05;;;;;;;8.52;4.20;;;;;;;-2.59;80.59;100588.22;4979481;28;20046;-73
2021/12/26 09:11:31;;;;;;;10.13;3.88;;;;;;;-2.52;80.88;100591.59;4988188;28;20394;-77
2021/12/26 09:13:56;;;;;;;8.95;5.43;;;;;;;-2.49;81.39;100588.88;4985763;28;20035;-76
2021/12/26 09:16:22;;;;;;;5.53;4.07;;;;;;;-2.43;80.29;100596.72;4987236;28;20018;-79
2021/12/26 09:18:48;;;;;;;10.55;4.00;;;;;;;-2.40;80.05;100586.88;4986321;28;20030;-76
2021/12/26 09:21:14;;;;;;;7.88;3.97;;;;;;;-2.33;80.29;100591.16;4984161;28;20376;-77
2021/12/26 09:23:39;;;;;;;9.32;3.97;;;;;;;-2.27;79.67;100589.25;4984958;28;20030;-80
2021/12/26 09:26:04;;;;;;;6.38;3.63;;;;;;;-2.22;79.42;100590.91;4983798;28;20023;-78
2021/12/26 09:28:30;;;;;;;7.97;4.10;;;;;;;-2.19;80.24;100589.91;4986623;28;20390;-77
2021/12/26 09:30:56;;;;;;;11.57;4.82;;;;;;;-2.18;79.85;100581.91;4987227;28;20501;-76
2021/12/26 09:33:21;;;;;;;9.77;4.03;;;;;;;-2.14;80.92;100594.25;4985351;28;20030;-74
2021/12/26 09:35:49;;;;;;;6.97;3.65;;;;;;;-2.09;80.25;100597.69;4984270;28;20027;-75
2021/12/26 09:38:14;;;;;;;8.13;4.18;;;;;;;-2.04;79.73;100589.56;4975376;28;20080;-78
2021/12/26 09:40:40;;;;;;;6.65;3.70;;;;;;;-2.02;79.65;100585.06;4974337;28;20121;-77
2021/12/26 09:43:05;;;;;;;9.20;4.60;;;;;;;-1.97;80.66;100592.94;4974953;28;20037;-75
2021/12/26 09:45:30;;;;;;;8.18;4.30;;;;;;;-1.93;79.92;100599.94;4986523;28;20022;-77
2021/12/26 09:47:56;;;;;;;8.40;4.32;;;;;;;-1.88;79.29;100598.03;4983821;28;20383;-78
2021/12/26 09:50:22;;;;;;;9.50;5.03;;;;;;;-1.84;80.20;100599.72;4986240;28;20704;-76
2021/12/26 09:52:50;;;;;;;8.90;4.65;;;;;;;-1.80;80.23;100588.94;4982634;28;20057;-76
2021/12/26 09:55:16;;;;;;;7.50;4.10;;;;;;;-1.73;80.41;100594.97;4987693;28;20030;-77
2021/12/26 09:57:42;;;;;;;9.75;4.03;;;;;;;-1.67;79.40;100592.16;4982291;28;20045;-77
2021/12/26 10:00:23;;;;;;;11.15;4.22;;;;;;;-1.64;79.76;100588.53;4983716;28;20041;-73
2021/12/26 10:03:08;;;;;;;8.52;5.28;;;;;;;-1.60;79.98;100584.88;4980410;28;20109;-75
2021/12/26 10:05:57;;;;;;;8.93;4.93;;;;;;;-1.53;80.25;100582.94;4974602;28;20030;-72
2021/12/26 10:08:23;;;;;;;12.32;5.28;;;;;;;-1.48;79.80;100579.22;4977073;28;20085;-72
2021/12/26 10:11:06;;;;;;;13.38;5.25;;;;;;;-1.42;80.01;100575.50;4979339;28;20483;-75
2021/12/26 10:13:37;;;;;;;;;;;;;;;-1.40;80.18;100562.97;4983311;28;20055;-75
2021/12/26 10:16:03;;;;;;;8.75;4.57;;;;;;;-1.38;79.10;100559.34;4982949;28;19961;-74
2021/12/26 10:18:29;;;;;;;11.00;5.05;;;;;;;-1.35;79.42;100556.63;4983242;28;20512;-76
2021/12/26 10:20:54;;;;;;;8.35;4.55;;;;;;;-1.30;79.62;100559.16;4984111;28;20041;-74
2021/12/26 10:23:28;;;;;;;8.77;5.15;;;;;;;-1.26;80.33;100554.56;4977522;28;20653;-74
2021/12/26 10:25:53;;;;;;;8.80;5.20;;;;;;;-1.22;79.84;100551.78;4973228;28;20026;-71
2021/12/26 10:28:19;;;;;;;11.65;4.72;;;;;;;-1.17;79.17;100549.84;4984701;28;20028;-72
2021/12/26 10:30:45;;;;;;;9.93;6.07;;;;;;;-1.15;79.25;100545.34;4982542;28;20026;-72
2021/12/26 10:33:10;;;;;;;15.38;5.32;;;;;;;-1.12;79.12;100534.59;4982131;28;20034;-72
2021/12/26 10:35:35;;;;;;;11.23;5.00;;;;;;;-1.09;78.92;100529.16;4976468;28;20502;-75
2021/12/26 10:38:01;;;;;;;10.68;5.22;;;;;;;-1.07;79.31;100531.78;4982298;28;20121;-75
2021/12/26 10:40:31;;;;;;;11.18;5.50;;;;;;;-1.02;79.87;100529.00;4987505;28;20022;-75
2021/12/26 10:42:59;;;;;;;13.88;5.00;;;;;;;-1.01;78.71;100526.25;4979725;28;20089;-75
2021/12/26 10:45:28;;;;;;;8.75;4.90;;;;;;;-1.00;79.77;100525.34;4985726;28;20049;-76
2021/12/26 10:47:56;;;;;;;7.93;5.13;;;;;;;-0.91;79.49;100521.50;4983246;28;20643;-71
2021/12/26 10:50:26;;;;;;;9.93;5.53;;;;;;;-0.89;79.23;100525.00;4981744;28;20402;-76
2021/12/26 10:52:59;;;;;;;7.82;5.07;;;;;;;-0.84;79.56;100525.72;4976464;28;20047;-74
2021/12/26 10:55:51;;;;;;;11.00;5.60;;;;;;;-0.80;79.29;100519.38;4986617;28;20519;-75
2021/12/26 10:58:20;;;;;;;9.80;4.80;;;;;;;-0.79;79.00;100521.16;4977664;28;20113;-74
2021/12/26 11:00:48;;;;;;;10.02;6.03;;;;;;;-0.77;79.64;100522.84;4979894;28;20281;-75
2021/12/26 11:03:21;;;;;;;9.60;5.55;;;;;;;-0.72;80.13;100522.69;4983509;28;20117;-75
2021/12/26 11:05:49;;;;;;;13.35;5.63;;;;;;;-0.70;79.47;100518.19;4993051;28;20073;-76
2021/12/26 11:08:28;;;;;;;10.48;5.97;;;;;;;-0.63;80.29;100513.50;4979814;28;20125;-76
2021/12/26 11:10:54;;;;;;;10.77;5.80;;;;;;;-0.59;79.34;100505.34;4983663;28;20022;-76
2021/12/26 11:13:29;;;;;;;13.00;6.10;;;;;;;-0.56;80.41;100505.28;4984762;28;20045;-76
2021/12/26 11:15:56;;;;;;;11.15;5.65;;;;;;;-0.49;79.19;100497.91;4993268;28;20027;-75
2021/12/26 11:18:22;;;;;;;12.20;5.82;;;;;;;-0.47;79.63;100495.19;4984106;28;20085;-75
2021/12/26 11:20:49;;;;;;;14.68;6.15;;;;;;;-0.43;80.41;100497.69;4984349;28;20474;-73
2021/12/26 11:23:20;;;;;;;9.45;5.68;;;;;;;-0.38;79.66;100492.22;4984285;28;20442;-73
2021/12/26 11:26:02;;;;;;;11.02;5.60;;;;;;;-0.35;79.92;100495.66;4982859;28;20446;-74
2021/12/26 11:28:30;;;;;;;8.95;5.45;;;;;;;-0.29;79.59;100506.13;4977003;28;20041;-73
2021/12/26 11:31:08;;;;;;;13.65;6.20;;;;;;;-0.24;80.56;100500.63;4986525;28;20018;-76